Terminal Aerodrome Forecast
Issued by NWS Tallahassee, FL

Home | Current Version | Previous Version | Text Only | Print | Product List | Glossary On
Versions: 1 2 3 4 5 6 7 8 9 10 11 12 13 14 15 16 17
000
FTUS42 KTAE 031728
TAFTLH
TAF
KTLH 031728Z 0318/0418 18006KT P6SM VCTS SCT035CB BKN060
      TEMPO 0319/0323 VRB15G25KT 3SM TSRA BKN035CB
     FM040000 00000KT P6SM FEW060 BKN150
      TEMPO 0409/0413 5SM BR SCT001
     FM041600 17006KT P6SM FEW025 BKN050=

USA.gov is the U.S. government's official web portal to all federal, state and local government web resources and services.